sensor_id;sensor_type;location;lat;lon;timestamp;pressure;altitude;pressure_sealevel;temperature;humidity
1472;BME280;963;42.644;23.336;2023-01-29T00:01:07;94251.28;;;2.54;70.36
1472;BME280;963;42.644;23.336;2023-01-29T00:03:33;94258.16;;;2.59;70.46
1472;BME280;963;42.644;23.336;2023-01-29T00:06:03;94265.00;;;2.46;70.57
1472;BME280;963;42.644;23.336;2023-01-29T00:08:29;94270.97;;;2.55;70.79
1472;BME280;963;42.644;23.336;2023-01-29T00:11:00;94260.78;;;2.67;69.91
1472;BME280;963;42.644;23.336;2023-01-29T00:13:25;94271.16;;;2.67;69.47
1472;BME280;963;42.644;23.336;2023-01-29T00:15:55;94280.19;;;2.70;68.73
1472;BME280;963;42.644;23.336;2023-01-29T00:18:22;94294.78;;;2.57;69.92
1472;BME280;963;42.644;23.336;2023-01-29T00:20:48;94265.81;;;2.64;69.26
1472;BME280;963;42.644;23.336;2023-01-29T00:23:13;94269.66;;;2.83;69.08
1472;BME280;963;42.644;23.336;2023-01-29T00:25:43;94271.00;;;2.64;69.36
1472;BME280;963;42.644;23.336;2023-01-29T00:28:09;94272.03;;;2.54;69.37
1472;BME280;963;42.644;23.336;2023-01-29T00:30:35;94269.09;;;2.38;69.51
1472;BME280;963;42.644;23.336;2023-01-29T00:33:01;94297.56;;;2.61;69.57
1472;BME280;963;42.644;23.336;2023-01-29T00:35:27;94269.50;;;2.71;71.02
1472;BME280;963;42.644;23.336;2023-01-29T00:37:54;94283.41;;;3.27;71.38
1472;BME280;963;42.644;23.336;2023-01-29T00:40:19;94276.84;;;3.21;68.34
1472;BME280;963;42.644;23.336;2023-01-29T00:42:45;94284.34;;;3.14;67.66
1472;BME280;963;42.644;23.336;2023-01-29T00:45:29;94284.97;;;3.11;67.78
1472;BME280;963;42.644;23.336;2023-01-29T00:47:54;94296.44;;;3.10;67.76
1472;BME280;963;42.644;23.336;2023-01-29T00:50:21;94287.19;;;2.69;68.97
1472;BME280;963;42.644;23.336;2023-01-29T00:52:46;94274.13;;;2.26;69.69
1472;BME280;963;42.644;23.336;2023-01-29T00:55:14;94276.66;;;2.74;69.08
1472;BME280;963;42.644;23.336;2023-01-29T00:57:39;94278.97;;;2.76;69.06
1472;BME280;963;42.644;23.336;2023-01-29T01:00:07;94278.34;;;2.70;69.54
1472;BME280;963;42.644;23.336;2023-01-29T01:02:33;94274.06;;;2.66;69.37
1472;BME280;963;42.644;23.336;2023-01-29T01:05:18;94276.34;;;2.67;69.62
1472;BME280;963;42.644;23.336;2023-01-29T01:07:51;94283.69;;;2.65;70.41
1472;BME280;963;42.644;23.336;2023-01-29T01:10:23;94275.13;;;2.73;70.07
1472;BME280;963;42.644;23.336;2023-01-29T01:12:53;94278.50;;;2.82;69.57
1472;BME280;963;42.644;23.336;2023-01-29T01:15:20;94276.81;;;2.78;69.54
1472;BME280;963;42.644;23.336;2023-01-29T01:17:45;94275.13;;;2.73;70.36
1472;BME280;963;42.644;23.336;2023-01-29T01:20:13;94273.16;;;2.62;70.65
1472;BME280;963;42.644;23.336;2023-01-29T01:22:39;94265.06;;;2.63;70.53
1472;BME280;963;42.644;23.336;2023-01-29T01:25:04;94285.53;;;2.73;70.77
1472;BME280;963;42.644;23.336;2023-01-29T01:27:30;94269.94;;;2.65;71.31
1472;BME280;963;42.644;23.336;2023-01-29T01:29:56;94285.22;;;2.66;70.49
1472;BME280;963;42.644;23.336;2023-01-29T01:32:22;94265.31;;;2.53;71.39
1472;BME280;963;42.644;23.336;2023-01-29T01:34:47;94272.63;;;2.51;71.76
1472;BME280;963;42.644;23.336;2023-01-29T01:37:12;94260.09;;;2.36;71.37
1472;BME280;963;42.644;23.336;2023-01-29T01:39:38;94275.22;;;2.42;71.67
1472;BME280;963;42.644;23.336;2023-01-29T01:42:05;94263.94;;;2.47;71.64
1472;BME280;963;42.644;23.336;2023-01-29T01:44:59;94267.75;;;2.58;71.58
1472;BME280;963;42.644;23.336;2023-01-29T01:47:37;94292.09;;;2.71;70.54
1472;BME280;963;42.644;23.336;2023-01-29T01:50:16;94264.09;;;2.50;71.45
1472;BME280;963;42.644;23.336;2023-01-29T01:52:47;94279.97;;;2.49;71.69
1472;BME280;963;42.644;23.336;2023-01-29T01:55:16;94259.66;;;2.51;71.33
1472;BME280;963;42.644;23.336;2023-01-29T01:57:45;94285.38;;;2.61;70.89
1472;BME280;963;42.644;23.336;2023-01-29T02:00:14;94285.63;;;2.60;71.53
1472;BME280;963;42.644;23.336;2023-01-29T02:02:42;94288.53;;;2.58;71.51
1472;BME280;963;42.644;23.336;2023-01-29T02:05:29;94291.78;;;2.64;71.51
1472;BME280;963;42.644;23.336;2023-01-29T02:08:22;94304.88;;;2.59;71.44
1472;BME280;963;42.644;23.336;2023-01-29T02:11:10;94298.34;;;2.61;71.80
1472;BME280;963;42.644;23.336;2023-01-29T02:13:35;94316.78;;;2.60;71.77
1472;BME280;963;42.644;23.336;2023-01-29T02:16:01;94295.59;;;2.66;72.14
1472;BME280;963;42.644;23.336;2023-01-29T02:18:26;94302.41;;;2.54;72.51
1472;BME280;963;42.644;23.336;2023-01-29T02:26:44;94306.22;;;2.47;73.14
1472;BME280;963;42.644;23.336;2023-01-29T02:37:17;94323.53;;;2.61;73.22
1472;BME280;963;42.644;23.336;2023-01-29T02:40:07;94324.47;;;2.65;73.18
1472;BME280;963;42.644;23.336;2023-01-29T02:42:42;94305.31;;;2.52;73.25
1472;BME280;963;42.644;23.336;2023-01-29T02:48:24;94316.31;;;2.49;73.54
1472;BME280;963;42.644;23.336;2023-01-29T02:51:00;94333.72;;;2.57;74.48
1472;BME280;963;42.644;23.336;2023-01-29T02:56:09;94315.56;;;2.57;73.65
1472;BME280;963;42.644;23.336;2023-01-29T02:58:42;94323.34;;;2.57;73.99
1472;BME280;963;42.644;23.336;2023-01-29T03:01:39;94319.06;;;2.53;74.56
1472;BME280;963;42.644;23.336;2023-01-29T03:04:15;94322.41;;;2.53;74.57
1472;BME280;963;42.644;23.336;2023-01-29T03:06:55;94327.28;;;2.46;75.14
1472;BME280;963;42.644;23.336;2023-01-29T03:09:29;94311.09;;;2.40;74.86
1472;BME280;963;42.644;23.336;2023-01-29T03:12:03;94318.44;;;2.47;74.84
1472;BME280;963;42.644;23.336;2023-01-29T03:14:45;94319.16;;;1.99;76.08
1472;BME280;963;42.644;23.336;2023-01-29T03:17:35;94326.94;;;1.99;76.32
1472;BME280;963;42.644;23.336;2023-01-29T03:20:04;94326.88;;;2.22;75.02
1472;BME280;963;42.644;23.336;2023-01-29T03:22:32;94333.59;;;2.23;75.20
1472;BME280;963;42.644;23.336;2023-01-29T03:25:01;94315.72;;;2.21;74.88
1472;BME280;963;42.644;23.336;2023-01-29T03:27:52;94333.78;;;2.26;74.53
1472;BME280;963;42.644;23.336;2023-01-29T03:30:50;94338.03;;;2.22;74.50
1472;BME280;963;42.644;23.336;2023-01-29T03:33:51;94322.13;;;2.15;73.83
1472;BME280;963;42.644;23.336;2023-01-29T03:36:28;94316.25;;;2.32;72.84
1472;BME280;963;42.644;23.336;2023-01-29T03:39:03;94341.50;;;2.48;71.53
1472;BME280;963;42.644;23.336;2023-01-29T03:41:34;94325.03;;;2.53;71.20
1472;BME280;963;42.644;23.336;2023-01-29T03:47:00;94328.22;;;2.50;70.49
1472;BME280;963;42.644;23.336;2023-01-29T03:49:41;94332.00;;;2.44;70.59
1472;BME280;963;42.644;23.336;2023-01-29T03:52:55;94333.56;;;2.54;71.14
1472;BME280;963;42.644;23.336;2023-01-29T03:56:07;94330.50;;;2.43;72.08
1472;BME280;963;42.644;23.336;2023-01-29T03:58:46;94322.84;;;2.38;72.43
1472;BME280;963;42.644;23.336;2023-01-29T04:01:30;94345.75;;;2.44;72.87
1472;BME280;963;42.644;23.336;2023-01-29T04:04:15;94338.72;;;2.36;73.13
1472;BME280;963;42.644;23.336;2023-01-29T04:06:44;94336.75;;;2.42;73.06
1472;BME280;963;42.644;23.336;2023-01-29T04:09:17;94323.78;;;2.42;73.25
1472;BME280;963;42.644;23.336;2023-01-29T04:11:58;94351.81;;;2.31;73.62
1472;BME280;963;42.644;23.336;2023-01-29T04:14:26;94355.03;;;2.37;73.61
1472;BME280;963;42.644;23.336;2023-01-29T04:16:54;94334.28;;;2.37;73.96
1472;BME280;963;42.644;23.336;2023-01-29T04:19:22;94357.47;;;2.33;73.93
1472;BME280;963;42.644;23.336;2023-01-29T04:21:49;94341.56;;;2.26;73.88
1472;BME280;963;42.644;23.336;2023-01-29T04:24:17;94326.88;;;2.22;74.04
1472;BME280;963;42.644;23.336;2023-01-29T04:27:06;94335.34;;;2.36;73.93
1472;BME280;963;42.644;23.336;2023-01-29T04:29:49;94338.75;;;2.45;73.31
1472;BME280;963;42.644;23.336;2023-01-29T04:32:30;94346.06;;;2.43;73.34
1472;BME280;963;42.644;23.336;2023-01-29T04:35:10;94347.13;;;2.42;73.19
1472;BME280;963;42.644;23.336;2023-01-29T04:37:49;94336.91;;;2.14;73.75
1472;BME280;963;42.644;23.336;2023-01-29T04:40:19;94343.75;;;2.33;73.59
1472;BME280;963;42.644;23.336;2023-01-29T04:48:16;94355.03;;;2.37;72.86
1472;BME280;963;42.644;23.336;2023-01-29T04:53:51;94350.47;;;2.42;72.73
1472;BME280;963;42.644;23.336;2023-01-29T04:59:05;94355.47;;;2.30;73.10
1472;BME280;963;42.644;23.336;2023-01-29T05:01:32;94381.47;;;2.39;72.26
1472;BME280;963;42.644;23.336;2023-01-29T05:04:03;94352.72;;;2.27;72.67
1472;BME280;963;42.644;23.336;2023-01-29T05:06:31;94358.97;;;2.26;72.45
1472;BME280;963;42.644;23.336;2023-01-29T05:08:58;94337.00;;;2.32;71.98
1472;BME280;963;42.644;23.336;2023-01-29T05:11:25;94357.50;;;2.42;71.82
1472;BME280;963;42.644;23.336;2023-01-29T05:13:50;94361.44;;;2.31;71.43
1472;BME280;963;42.644;23.336;2023-01-29T05:16:39;94355.81;;;2.37;72.32
1472;BME280;963;42.644;23.336;2023-01-29T05:19:09;94367.56;;;2.35;72.18
1472;BME280;963;42.644;23.336;2023-01-29T05:21:36;94367.84;;;2.33;72.02
1472;BME280;963;42.644;23.336;2023-01-29T05:24:15;94388.31;;;2.35;73.12
1472;BME280;963;42.644;23.336;2023-01-29T05:26:42;94366.03;;;2.34;72.79
1472;BME280;963;42.644;23.336;2023-01-29T05:29:27;94371.06;;;2.30;73.42
1472;BME280;963;42.644;23.336;2023-01-29T05:31:52;94351.66;;;2.28;73.11
1472;BME280;963;42.644;23.336;2023-01-29T05:34:18;94384.03;;;2.30;72.89
1472;BME280;963;42.644;23.336;2023-01-29T05:36:44;94391.03;;;2.30;72.56
1472;BME280;963;42.644;23.336;2023-01-29T05:39:09;94381.13;;;2.32;73.09
1472;BME280;963;42.644;23.336;2023-01-29T05:41:35;94384.19;;;2.34;73.30
1472;BME280;963;42.644;23.336;2023-01-29T05:44:00;94390.94;;;2.43;72.31
1472;BME280;963;42.644;23.336;2023-01-29T05:46:25;94364.78;;;2.31;72.69
1472;BME280;963;42.644;23.336;2023-01-29T05:48:51;94386.06;;;2.42;72.35
1472;BME280;963;42.644;23.336;2023-01-29T05:51:17;94375.34;;;2.35;72.61
1472;BME280;963;42.644;23.336;2023-01-29T05:53:42;94383.00;;;2.40;72.55
1472;BME280;963;42.644;23.336;2023-01-29T05:56:08;94410.00;;;2.39;72.33
1472;BME280;963;42.644;23.336;2023-01-29T05:58:33;94378.09;;;2.38;72.31
1472;BME280;963;42.644;23.336;2023-01-29T06:01:14;94384.06;;;2.39;73.31
1472;BME280;963;42.644;23.336;2023-01-29T06:03:40;94397.38;;;2.46;73.13
1472;BME280;963;42.644;23.336;2023-01-29T06:06:05;94382.97;;;2.31;72.93
1472;BME280;963;42.644;23.336;2023-01-29T06:08:31;94394.44;;;2.39;73.75
1472;BME280;963;42.644;23.336;2023-01-29T06:10:56;94411.53;;;2.40;73.17
1472;BME280;963;42.644;23.336;2023-01-29T06:13:22;94401.75;;;2.37;73.30
1472;BME280;963;42.644;23.336;2023-01-29T06:15:47;94404.78;;;2.30;73.75
1472;BME280;963;42.644;23.336;2023-01-29T06:18:13;94411.06;;;2.38;73.81
1472;BME280;963;42.644;23.336;2023-01-29T06:20:38;94418.72;;;2.43;74.06
1472;BME280;963;42.644;23.336;2023-01-29T06:23:04;94428.31;;;2.34;74.40
1472;BME280;963;42.644;23.336;2023-01-29T06:25:30;94418.56;;;2.39;74.45
1472;BME280;963;42.644;23.336;2023-01-29T06:27:55;94422.69;;;2.40;74.76
1472;BME280;963;42.644;23.336;2023-01-29T06:30:21;94430.97;;;2.51;74.57
1472;BME280;963;42.644;23.336;2023-01-29T06:32:46;94421.66;;;2.50;74.53
1472;BME280;963;42.644;23.336;2023-01-29T06:35:12;94430.84;;;2.56;73.74
1472;BME280;963;42.644;23.336;2023-01-29T06:37:37;94433.88;;;2.49;74.05
1472;BME280;963;42.644;23.336;2023-01-29T06:40:03;94428.38;;;2.51;74.07
1472;BME280;963;42.644;23.336;2023-01-29T06:42:28;94424.06;;;2.38;73.71
1472;BME280;963;42.644;23.336;2023-01-29T06:44:54;94440.47;;;2.56;74.11
1472;BME280;963;42.644;23.336;2023-01-29T06:47:20;94438.25;;;2.63;73.44
1472;BME280;963;42.644;23.336;2023-01-29T06:49:46;94418.13;;;2.46;73.06
1472;BME280;963;42.644;23.336;2023-01-29T06:52:11;94436.66;;;2.53;74.29
1472;BME280;963;42.644;23.336;2023-01-29T06:54:36;94441.84;;;2.53;73.22
1472;BME280;963;42.644;23.336;2023-01-29T06:57:02;94462.56;;;2.75;73.29
1472;BME280;963;42.644;23.336;2023-01-29T06:59:27;94453.09;;;2.71;73.16
1472;BME280;963;42.644;23.336;2023-01-29T07:01:53;94444.19;;;2.63;73.89
1472;BME280;963;42.644;23.336;2023-01-29T07:04:18;94459.72;;;2.86;72.89
1472;BME280;963;42.644;23.336;2023-01-29T07:06:44;94454.50;;;2.86;73.00
1472;BME280;963;42.644;23.336;2023-01-29T07:09:11;94458.50;;;2.92;73.05
1472;BME280;963;42.644;23.336;2023-01-29T07:11:38;94467.84;;;2.93;72.84
1472;BME280;963;42.644;23.336;2023-01-29T07:14:04;94461.72;;;2.89;72.57
1472;BME280;963;42.644;23.336;2023-01-29T07:16:29;94454.06;;;2.83;72.51
1472;BME280;963;42.644;23.336;2023-01-29T07:18:55;94471.97;;;2.94;72.17
1472;BME280;963;42.644;23.336;2023-01-29T07:21:20;94467.47;;;2.77;73.45
1472;BME280;963;42.644;23.336;2023-01-29T07:23:46;94459.97;;;2.75;72.99
1472;BME280;963;42.644;23.336;2023-01-29T07:26:11;94482.94;;;2.91;72.39
1472;BME280;963;42.644;23.336;2023-01-29T07:28:37;94479.66;;;2.99;71.98
1472;BME280;963;42.644;23.336;2023-01-29T07:31:08;94478.22;;;2.93;73.24
1472;BME280;963;42.644;23.336;2023-01-29T07:33:35;94491.91;;;3.07;72.46
1472;BME280;963;42.644;23.336;2023-01-29T07:36:01;94468.19;;;3.00;72.58
1472;BME280;963;42.644;23.336;2023-01-29T07:38:27;94478.44;;;3.05;72.83
1472;BME280;963;42.644;23.336;2023-01-29T07:40:52;94479.38;;;3.09;72.46
1472;BME280;963;42.644;23.336;2023-01-29T07:43:18;94478.44;;;3.05;72.41
1472;BME280;963;42.644;23.336;2023-01-29T07:45:43;94481.19;;;3.00;72.47
1472;BME280;963;42.644;23.336;2023-01-29T07:48:11;94484.44;;;3.14;72.29
1472;BME280;963;42.644;23.336;2023-01-29T07:50:37;94497.59;;;3.18;72.41
1472;BME280;963;42.644;23.336;2023-01-29T07:53:03;94488.56;;;3.15;71.92
1472;BME280;963;42.644;23.336;2023-01-29T07:55:29;94489.34;;;3.24;71.31
1472;BME280;963;42.644;23.336;2023-01-29T07:57:55;94483.38;;;3.15;71.86
1472;BME280;963;42.644;23.336;2023-01-29T08:00:21;94491.03;;;3.29;71.13
1472;BME280;963;42.644;23.336;2023-01-29T08:02:47;94493.63;;;3.20;72.08
1472;BME280;963;42.644;23.336;2023-01-29T08:05:12;94503.28;;;3.28;72.00
1472;BME280;963;42.644;23.336;2023-01-29T08:07:37;94498.19;;;3.14;72.07
1472;BME280;963;42.644;23.336;2023-01-29T08:10:03;94499.28;;;3.22;71.80
1472;BME280;963;42.644;23.336;2023-01-29T08:12:29;94496.22;;;3.20;71.98
1472;BME280;963;42.644;23.336;2023-01-29T08:14:54;94495.78;;;3.27;71.94
1472;BME280;963;42.644;23.336;2023-01-29T08:17:20;94497.88;;;3.16;71.89
1472;BME280;963;42.644;23.336;2023-01-29T08:19:45;94490.69;;;3.13;72.10
1472;BME280;963;42.644;23.336;2023-01-29T08:22:10;94500.03;;;3.14;72.71
1472;BME280;963;42.644;23.336;2023-01-29T08:24:36;94503.19;;;3.02;72.38
1472;BME280;963;42.644;23.336;2023-01-29T08:27:01;94497.53;;;3.00;72.77
1472;BME280;963;42.644;23.336;2023-01-29T08:29:27;94512.22;;;3.05;72.82
1472;BME280;963;42.644;23.336;2023-01-29T08:31:52;94506.13;;;3.09;72.57
1472;BME280;963;42.644;23.336;2023-01-29T08:34:18;94501.41;;;3.20;71.34
1472;BME280;963;42.644;23.336;2023-01-29T08:36:43;94501.88;;;3.22;71.60
1472;BME280;963;42.644;23.336;2023-01-29T08:39:08;94512.13;;;3.27;71.35
1472;BME280;963;42.644;23.336;2023-01-29T08:41:34;94502.63;;;3.14;70.59
1472;BME280;963;42.644;23.336;2023-01-29T08:43:59;94521.59;;;3.23;70.18
1472;BME280;963;42.644;23.336;2023-01-29T08:46:26;94517.19;;;3.24;69.38
1472;BME280;963;42.644;23.336;2023-01-29T08:48:52;94530.63;;;3.26;69.84
1472;BME280;963;42.644;23.336;2023-01-29T08:51:17;94526.38;;;3.30;69.39
1472;BME280;963;42.644;23.336;2023-01-29T08:53:43;94524.34;;;3.18;69.58
1472;BME280;963;42.644;23.336;2023-01-29T08:56:08;94545.31;;;3.30;69.47
1472;BME280;963;42.644;23.336;2023-01-29T08:58:34;94533.25;;;3.34;69.51
1472;BME280;963;42.644;23.336;2023-01-29T09:01:12;94535.59;;;3.36;69.31
1472;BME280;963;42.644;23.336;2023-01-29T09:03:38;94561.28;;;3.37;69.53
1472;BME280;963;42.644;23.336;2023-01-29T09:06:10;94534.22;;;3.38;68.80
1472;BME280;963;42.644;23.336;2023-01-29T09:08:36;94532.69;;;3.37;68.96
1472;BME280;963;42.644;23.336;2023-01-29T09:11:01;94538.34;;;3.39;69.51
1472;BME280;963;42.644;23.336;2023-01-29T09:13:26;94552.28;;;3.43;69.21
1472;BME280;963;42.644;23.336;2023-01-29T09:15:52;94536.41;;;3.54;68.00
1472;BME280;963;42.644;23.336;2023-01-29T09:18:17;94525.69;;;3.47;68.78
1472;BME280;963;42.644;23.336;2023-01-29T09:20:43;94534.41;;;3.51;68.60
1472;BME280;963;42.644;23.336;2023-01-29T09:23:09;94549.69;;;3.52;68.86
1472;BME280;963;42.644;23.336;2023-01-29T09:25:35;94523.53;;;3.49;68.97
1472;BME280;963;42.644;23.336;2023-01-29T09:28:01;94527.84;;;3.53;68.99
1472;BME280;963;42.644;23.336;2023-01-29T09:30:27;94531.34;;;3.49;69.08
1472;BME280;963;42.644;23.336;2023-01-29T09:32:52;94537.78;;;3.60;68.43
1472;BME280;963;42.644;23.336;2023-01-29T09:35:19;94526.44;;;3.47;69.09
1472;BME280;963;42.644;23.336;2023-01-29T09:37:48;94515.28;;;3.55;68.17
1472;BME280;963;42.644;23.336;2023-01-29T09:40:24;94524.16;;;3.45;68.30
1472;BME280;963;42.644;23.336;2023-01-29T09:43:06;94509.63;;;3.53;68.27
1472;BME280;963;42.644;23.336;2023-01-29T09:45:35;94538.25;;;3.62;68.17
1472;BME280;963;42.644;23.336;2023-01-29T09:48:02;94516.38;;;3.63;68.02
1472;BME280;963;42.644;23.336;2023-01-29T09:50:40;94511.94;;;3.55;68.64
1472;BME280;963;42.644;23.336;2023-01-29T09:53:18;94518.34;;;3.49;68.57
1472;BME280;963;42.644;23.336;2023-01-29T10:01:20;94507.81;;;3.71;67.36
1472;BME280;963;42.644;23.336;2023-01-29T10:07:09;94497.13;;;3.72;68.20
1472;BME280;963;42.644;23.336;2023-01-29T10:12:56;94497.72;;;3.69;68.44
1472;BME280;963;42.644;23.336;2023-01-29T10:15:37;94506.78;;;3.72;68.36
1472;BME280;963;42.644;23.336;2023-01-29T10:18:47;94494.09;;;3.79;68.02
1472;BME280;963;42.644;23.336;2023-01-29T10:21:49;94485.34;;;3.75;68.16
1472;BME280;963;42.644;23.336;2023-01-29T10:24:37;94490.72;;;3.79;67.23
1472;BME280;963;42.644;23.336;2023-01-29T10:27:12;94492.25;;;3.88;67.49
1472;BME280;963;42.644;23.336;2023-01-29T10:29:40;94495.16;;;3.95;67.25
1472;BME280;963;42.644;23.336;2023-01-29T10:32:13;94472.66;;;3.73;67.10
1472;BME280;963;42.644;23.336;2023-01-29T10:35:03;94484.44;;;3.88;66.95
1472;BME280;963;42.644;23.336;2023-01-29T10:37:40;94494.22;;;3.74;67.50
1472;BME280;963;42.644;23.336;2023-01-29T10:40:39;94480.63;;;3.77;67.73
1472;BME280;963;42.644;23.336;2023-01-29T10:43:16;94484.09;;;3.64;67.78
1472;BME280;963;42.644;23.336;2023-01-29T10:50:54;94486.25;;;3.62;68.36
1472;BME280;963;42.644;23.336;2023-01-29T10:58:49;94474.91;;;3.58;68.87
1472;BME280;963;42.644;23.336;2023-01-29T11:01:16;94483.31;;;3.55;68.86
1472;BME280;963;42.644;23.336;2023-01-29T11:03:41;94473.53;;;3.60;68.99
1472;BME280;963;42.644;23.336;2023-01-29T11:06:23;94469.88;;;3.53;69.13
1472;BME280;963;42.644;23.336;2023-01-29T11:08:55;94494.78;;;3.54;69.14
1472;BME280;963;42.644;23.336;2023-01-29T11:11:32;94464.34;;;3.54;69.25
1472;BME280;963;42.644;23.336;2023-01-29T11:14:08;94472.91;;;3.46;68.98
1472;BME280;963;42.644;23.336;2023-01-29T11:16:43;94499.53;;;3.52;69.56
1472;BME280;963;42.644;23.336;2023-01-29T11:19:10;94457.00;;;3.56;68.73
1472;BME280;963;42.644;23.336;2023-01-29T11:24:23;94456.88;;;3.70;68.15
1472;BME280;963;42.644;23.336;2023-01-29T11:26:49;94449.81;;;3.62;68.45
1472;BME280;963;42.644;23.336;2023-01-29T11:29:33;94445.88;;;3.73;68.27
1472;BME280;963;42.644;23.336;2023-01-29T11:32:07;94458.03;;;3.29;68.62
1472;BME280;963;42.644;23.336;2023-01-29T11:35:04;94434.78;;;3.33;68.90
1472;BME280;963;42.644;23.336;2023-01-29T11:37:42;94443.09;;;3.43;68.51
1472;BME280;963;42.644;23.336;2023-01-29T11:42:42;94434.06;;;3.58;68.19
1472;BME280;963;42.644;23.336;2023-01-29T11:45:27;94440.03;;;3.59;68.44
1472;BME280;963;42.644;23.336;2023-01-29T11:47:55;94416.63;;;3.59;68.44
1472;BME280;963;42.644;23.336;2023-01-29T11:50:24;94427.19;;;3.71;68.29
1472;BME280;963;42.644;23.336;2023-01-29T11:52:50;94416.78;;;3.71;68.74
1472;BME280;963;42.644;23.336;2023-01-29T11:55:19;94423.53;;;3.89;68.02
1472;BME280;963;42.644;23.336;2023-01-29T11:57:50;94413.59;;;3.74;67.33
1472;BME280;963;42.644;23.336;2023-01-29T12:00:27;94405.19;;;3.77;67.65
1472;BME280;963;42.644;23.336;2023-01-29T12:03:10;94426.59;;;3.91;67.60
1472;BME280;963;42.644;23.336;2023-01-29T12:05:37;94416.19;;;3.91;66.92
1472;BME280;963;42.644;23.336;2023-01-29T12:08:14;94413.91;;;3.90;67.61
1472;BME280;963;42.644;23.336;2023-01-29T12:10:42;94438.06;;;3.82;67.50
1472;BME280;963;42.644;23.336;2023-01-29T12:15:37;94434.25;;;3.96;67.43
1472;BME280;963;42.644;23.336;2023-01-29T12:20:45;94414.03;;;4.11;67.27
1472;BME280;963;42.644;23.336;2023-01-29T12:23:29;94408.06;;;4.10;67.08
1472;BME280;963;42.644;23.336;2023-01-29T12:26:05;94415.25;;;4.04;67.31
1472;BME280;963;42.644;23.336;2023-01-29T12:31:32;94411.91;;;3.95;66.63
1472;BME280;963;42.644;23.336;2023-01-29T12:36:42;94420.00;;;4.11;66.20
1472;BME280;963;42.644;23.336;2023-01-29T12:39:17;94438.66;;;4.04;66.73
1472;BME280;963;42.644;23.336;2023-01-29T12:44:24;94434.88;;;4.11;66.45
1472;BME280;963;42.644;23.336;2023-01-29T12:46:55;94423.06;;;4.13;66.71
1472;BME280;963;42.644;23.336;2023-01-29T12:49:24;94413.13;;;3.89;66.83
1472;BME280;963;42.644;23.336;2023-01-29T12:52:00;94413.28;;;3.93;67.35
1472;BME280;963;42.644;23.336;2023-01-29T12:54:51;94422.59;;;4.02;67.02
1472;BME280;963;42.644;23.336;2023-01-29T12:58:13;94410.69;;;3.84;66.86
1472;BME280;963;42.644;23.336;2023-01-29T13:00:22;94411.28;;;3.90;67.08
1472;BME280;963;42.644;23.336;2023-01-29T13:03:18;94416.94;;;4.09;66.88
1472;BME280;963;42.644;23.336;2023-01-29T13:08:35;94419.84;;;4.07;66.70
1472;BME280;963;42.644;23.336;2023-01-29T13:11:07;94418.31;;;4.06;66.49
1472;BME280;963;42.644;23.336;2023-01-29T13:13:42;94424.88;;;4.04;66.39
1472;BME280;963;42.644;23.336;2023-01-29T13:16:11;94398.56;;;4.14;66.10
1472;BME280;963;42.644;23.336;2023-01-29T13:21:12;94404.78;;;4.39;65.45
1472;BME280;963;42.644;23.336;2023-01-29T13:23:45;94405.84;;;4.47;65.34
1472;BME280;963;42.644;23.336;2023-01-29T13:26:12;94410.31;;;4.46;65.34
1472;BME280;963;42.644;23.336;2023-01-29T13:28:43;94409.84;;;4.35;65.10
1472;BME280;963;42.644;23.336;2023-01-29T13:31:38;94412.72;;;4.43;64.61
1472;BME280;963;42.644;23.336;2023-01-29T13:34:24;94419.94;;;4.54;64.80
1472;BME280;963;42.644;23.336;2023-01-29T13:36:57;94405.81;;;4.55;64.19
1472;BME280;963;42.644;23.336;2023-01-29T13:41:52;94422.56;;;4.37;64.70
1472;BME280;963;42.644;23.336;2023-01-29T13:46:56;94416.44;;;4.33;65.06
1472;BME280;963;42.644;23.336;2023-01-29T13:49:32;94432.69;;;4.30;64.96
1472;BME280;963;42.644;23.336;2023-01-29T13:52:13;94441.41;;;4.25;65.69
1472;BME280;963;42.644;23.336;2023-01-29T13:54:40;94433.31;;;3.92;66.54
1472;BME280;963;42.644;23.336;2023-01-29T14:00:00;94440.50;;;4.04;66.74
1472;BME280;963;42.644;23.336;2023-01-29T14:02:28;94428.91;;;3.75;67.02
1472;BME280;963;42.644;23.336;2023-01-29T14:10:38;94445.56;;;3.83;66.77
1472;BME280;963;42.644;23.336;2023-01-29T14:15:36;94448.94;;;3.75;66.62
1472;BME280;963;42.644;23.336;2023-01-29T14:18:15;94428.25;;;3.53;67.19
1472;BME280;963;42.644;23.336;2023-01-29T14:20:52;94457.31;;;3.63;67.61
1472;BME280;963;42.644;23.336;2023-01-29T14:26:00;94471.84;;;3.56;67.42
1472;BME280;963;42.644;23.336;2023-01-29T14:28:31;94468.16;;;3.39;68.16
1472;BME280;963;42.644;23.336;2023-01-29T14:30:58;94471.25;;;3.59;67.56
1472;BME280;963;42.644;23.336;2023-01-29T14:33:37;94472.16;;;3.63;67.22
1472;BME280;963;42.644;23.336;2023-01-29T14:36:12;94485.31;;;3.58;67.73
1472;BME280;963;42.644;23.336;2023-01-29T14:38:45;94475.97;;;3.48;67.67
1472;BME280;963;42.644;23.336;2023-01-29T14:43:46;94478.59;;;3.57;67.43
1472;BME280;963;42.644;23.336;2023-01-29T14:49:02;94483.47;;;3.50;68.28
1472;BME280;963;42.644;23.336;2023-01-29T14:51:33;94461.13;;;3.40;68.19
1472;BME280;963;42.644;23.336;2023-01-29T14:54:03;94473.72;;;3.07;69.23
1472;BME280;963;42.644;23.336;2023-01-29T14:56:39;94473.19;;;3.36;69.32
1472;BME280;963;42.644;23.336;2023-01-29T14:59:11;94496.91;;;3.43;69.06
1472;BME280;963;42.644;23.336;2023-01-29T15:01:39;94472.75;;;3.42;69.17
1472;BME280;963;42.644;23.336;2023-01-29T15:04:24;94477.34;;;3.45;69.20
1472;BME280;963;42.644;23.336;2023-01-29T15:06:56;94477.94;;;3.42;69.01
1472;BME280;963;42.644;23.336;2023-01-29T15:09:45;94477.03;;;3.47;69.36
1472;BME280;963;42.644;23.336;2023-01-29T15:15:06;94467.72;;;3.46;68.79
1472;BME280;963;42.644;23.336;2023-01-29T15:17:58;94470.94;;;3.52;69.03
1472;BME280;963;42.644;23.336;2023-01-29T15:22:55;94467.03;;;3.32;69.04
1472;BME280;963;42.644;23.336;2023-01-29T15:25:21;94466.28;;;3.31;69.43
1472;BME280;963;42.644;23.336;2023-01-29T15:27:47;94460.63;;;3.29;69.18
1472;BME280;963;42.644;23.336;2023-01-29T15:30:24;94473.97;;;3.36;69.46
1472;BME280;963;42.644;23.336;2023-01-29T15:32:50;94455.09;;;3.13;69.57
1472;BME280;963;42.644;23.336;2023-01-29T15:35:27;94497.47;;;3.31;69.63
1472;BME280;963;42.644;23.336;2023-01-29T15:38:06;94469.94;;;3.30;69.61
1472;BME280;963;42.644;23.336;2023-01-29T15:40:38;94482.34;;;3.33;69.40
1472;BME280;963;42.644;23.336;2023-01-29T15:43:20;94480.03;;;3.32;69.52
1472;BME280;963;42.644;23.336;2023-01-29T15:45:47;94478.78;;;3.12;69.65